createdAt,value
2023-01-20T00:01:46.497Z,36.47
2023-01-20T00:04:15.615Z,37.20
2023-01-20T00:06:42.536Z,45.90
2023-01-20T00:09:17.874Z,39.33
2023-01-20T00:11:49.953Z,46.07
2023-01-20T00:14:19.212Z,41.63
2023-01-20T00:16:46.127Z,39.60
2023-01-20T00:19:18.173Z,47.23
2023-01-20T00:21:45.132Z,43.63
2023-01-20T00:24:14.551Z,51.57
2023-01-20T00:26:41.489Z,60.67
2023-01-20T00:29:09.297Z,45.17
2023-01-20T00:31:36.518Z,45.73
2023-01-20T00:34:06.215Z,42.43
2023-01-20T00:36:34.076Z,48.60
2023-01-20T00:39:06.737Z,48.10
2023-01-20T00:41:34.022Z,50.60
2023-01-20T00:44:03.175Z,52.77
2023-01-20T00:46:32.539Z,56.00
2023-01-20T00:49:01.508Z,47.50
2023-01-20T00:51:28.499Z,47.67
2023-01-20T00:53:58.411Z,61.53
2023-01-20T00:56:25.358Z,45.73
2023-01-20T00:58:55.338Z,55.40
2023-01-20T01:01:23.623Z,54.83
2023-01-20T01:03:54.580Z,65.57
2023-01-20T01:06:23.351Z,47.67
2023-01-20T01:08:50.284Z,45.80
2023-01-20T01:11:22.052Z,50.67
2023-01-20T01:13:51.903Z,51.33
2023-01-20T01:16:19.035Z,50.63
2023-01-20T01:18:46.086Z,48.87
2023-01-20T01:21:16.507Z,49.80
2023-01-20T01:23:46.258Z,53.60
2023-01-20T01:26:13.675Z,42.30
2023-01-20T01:28:45.605Z,44.73
2023-01-20T01:31:17.081Z,49.87
2023-01-20T01:33:44.124Z,50.20
2023-01-20T01:36:28.631Z,61.00
2023-01-20T01:38:57.685Z,53.90
2023-01-20T01:41:26.596Z,51.60
2023-01-20T01:44:12.807Z,56.23
2023-01-20T01:46:40.847Z,52.20
2023-01-20T01:49:23.148Z,52.17
2023-01-20T01:52:06.360Z,48.10
2023-01-20T01:54:41.602Z,43.83
2023-01-20T01:57:11.617Z,50.43
2023-01-20T01:59:38.962Z,48.83
2023-01-20T02:02:06.057Z,43.87
2023-01-20T02:04:35.019Z,45.47
2023-01-20T02:07:11.576Z,51.57
2023-01-20T02:09:39.267Z,51.07
2023-01-20T02:12:13.000Z,50.90
2023-01-20T02:14:52.721Z,54.07
2023-01-20T02:17:38.571Z,44.67
2023-01-20T02:20:46.008Z,53.00
2023-01-20T02:23:42.535Z,47.30
2023-01-20T02:26:56.013Z,58.43
2023-01-20T02:29:44.844Z,44.60
2023-01-20T02:32:29.546Z,52.50
2023-01-20T02:35:09.206Z,54.93
2023-01-20T02:38:28.922Z,47.97
2023-01-20T02:41:10.718Z,43.20
2023-01-20T02:44:22.379Z,56.53
2023-01-20T02:47:02.318Z,48.30
2023-01-20T02:49:46.793Z,51.87
2023-01-20T02:52:25.373Z,53.93
2023-01-20T02:54:56.567Z,51.80
2023-01-20T02:57:35.819Z,46.83
2023-01-20T03:00:24.855Z,54.67
2023-01-20T03:03:03.347Z,49.03
2023-01-20T03:05:40.815Z,51.50
2023-01-20T03:08:13.987Z,43.70
2023-01-20T03:10:42.947Z,46.20
2023-01-20T03:13:31.910Z,49.13
2023-01-20T03:16:05.379Z,49.00
2023-01-20T03:18:36.509Z,49.27
2023-01-20T03:21:05.659Z,56.43
2023-01-20T03:23:40.903Z,46.17
2023-01-20T03:26:12.155Z,52.77
2023-01-20T03:28:41.391Z,50.27
2023-01-20T03:31:30.950Z,58.50
2023-01-20T03:34:01.825Z,60.80
2023-01-20T03:36:30.774Z,49.00
2023-01-20T03:38:59.462Z,44.87
2023-01-20T03:42:00.115Z,61.63
2023-01-20T03:44:57.219Z,55.90
2023-01-20T03:47:46.602Z,52.50
2023-01-20T03:50:19.298Z,53.83
2023-01-20T03:52:53.181Z,48.80
2023-01-20T03:55:28.952Z,54.40
2023-01-20T03:58:04.999Z,54.43
2023-01-20T04:00:39.935Z,50.47
2023-01-20T04:03:19.447Z,43.30
2023-01-20T04:05:48.291Z,50.10
2023-01-20T04:08:20.618Z,52.10
2023-01-20T04:10:50.144Z,41.20
2023-01-20T04:13:17.171Z,53.47
2023-01-20T04:15:45.903Z,51.40
2023-01-20T04:18:21.291Z,48.70
2023-01-20T04:20:53.300Z,45.60
2023-01-20T04:23:24.422Z,50.93
2023-01-20T04:25:51.314Z,49.30
2023-01-20T04:28:18.203Z,50.33
2023-01-20T04:30:45.176Z,42.87
2023-01-20T04:33:12.090Z,50.50
2023-01-20T04:35:41.965Z,43.50
2023-01-20T04:38:14.832Z,45.83
2023-01-20T04:40:41.895Z,52.07
2023-01-20T04:43:12.102Z,50.80
2023-01-20T04:45:43.827Z,45.60
2023-01-20T04:48:10.884Z,52.17
2023-01-20T04:50:41.750Z,43.23
2023-01-20T04:53:13.760Z,46.20
2023-01-20T04:55:40.679Z,38.83
2023-01-20T04:58:10.674Z,46.57
2023-01-20T05:00:37.780Z,44.27
2023-01-20T05:03:07.942Z,38.30
2023-01-20T05:05:37.218Z,39.53
2023-01-20T05:08:06.312Z,42.23
2023-01-20T05:10:34.572Z,38.10
2023-01-20T05:13:01.716Z,39.83
2023-01-20T05:15:28.691Z,37.70
2023-01-20T05:17:55.620Z,41.67
2023-01-20T05:20:22.521Z,49.23
2023-01-20T05:22:54.011Z,41.57
2023-01-20T05:25:20.881Z,41.67
2023-01-20T05:27:50.874Z,39.33
2023-01-20T05:30:18.000Z,42.00
2023-01-20T05:32:56.974Z,43.93
2023-01-20T05:35:23.910Z,39.77
2023-01-20T05:37:54.747Z,43.57
2023-01-20T05:40:22.439Z,43.33
2023-01-20T05:42:51.887Z,46.83
2023-01-20T05:45:18.726Z,39.30
2023-01-20T05:47:45.657Z,47.23
2023-01-20T05:50:15.056Z,41.77
2023-01-20T05:52:49.317Z,50.87
2023-01-20T05:55:16.968Z,49.63
2023-01-20T05:57:44.221Z,42.73
2023-01-20T06:00:15.042Z,33.03
2023-01-20T06:02:42.319Z,43.57
2023-01-20T06:05:09.577Z,42.77
2023-01-20T06:07:39.038Z,41.43
2023-01-20T06:10:08.645Z,38.30
2023-01-20T06:12:35.665Z,43.73
2023-01-20T06:15:07.640Z,41.93
2023-01-20T06:17:37.073Z,47.23
2023-01-20T06:20:06.592Z,40.63
2023-01-20T06:22:37.961Z,40.93
2023-01-20T06:25:05.442Z,40.70
2023-01-20T06:27:32.507Z,43.97
2023-01-20T06:30:04.030Z,41.33
2023-01-20T06:32:31.134Z,40.07
2023-01-20T06:34:57.968Z,38.27
2023-01-20T06:37:24.898Z,49.00
2023-01-20T06:39:51.741Z,44.50
2023-01-20T06:42:18.742Z,39.80
2023-01-20T06:44:45.644Z,40.00
2023-01-20T06:47:14.889Z,42.47
2023-01-20T06:49:45.464Z,45.73
2023-01-20T06:52:12.375Z,41.80
2023-01-20T06:54:41.610Z,40.43
2023-01-20T06:57:11.012Z,39.23
2023-01-20T06:59:40.035Z,34.73
2023-01-20T07:02:12.266Z,43.43
2023-01-20T07:04:39.355Z,39.07
2023-01-20T07:07:12.936Z,39.90
2023-01-20T07:09:40.036Z,46.03
2023-01-20T07:12:10.010Z,37.73
2023-01-20T07:14:41.575Z,39.17
2023-01-20T07:17:14.611Z,62.50
2023-01-20T07:19:46.077Z,45.50
2023-01-20T07:22:15.277Z,42.10
2023-01-20T07:24:42.161Z,45.97
2023-01-20T07:27:15.060Z,38.70
2023-01-20T07:29:44.268Z,47.93
2023-01-20T07:32:13.635Z,46.80
2023-01-20T07:34:40.469Z,46.77
2023-01-20T07:37:07.439Z,48.53
2023-01-20T07:39:36.234Z,41.63
2023-01-20T07:42:03.342Z,40.43
2023-01-20T07:44:33.087Z,45.57
2023-01-20T07:47:00.152Z,47.07
2023-01-20T07:49:31.680Z,43.23
2023-01-20T07:51:58.768Z,50.57
2023-01-20T07:54:25.867Z,45.77
2023-01-20T07:56:52.823Z,39.90
2023-01-20T07:59:22.240Z,43.93
2023-01-20T08:01:49.301Z,45.43
2023-01-20T08:04:18.009Z,33.10
2023-01-20T08:06:49.344Z,50.00
2023-01-20T08:09:16.348Z,43.37
2023-01-20T08:11:43.331Z,42.10
2023-01-20T08:14:14.128Z,48.70
2023-01-20T08:16:41.210Z,44.50
2023-01-20T08:19:08.250Z,42.97
2023-01-20T08:21:36.391Z,54.67
2023-01-20T08:24:08.945Z,39.83
2023-01-20T08:26:39.424Z,43.23
2023-01-20T08:29:10.639Z,38.30
2023-01-20T08:31:38.063Z,41.90
2023-01-20T08:34:06.525Z,41.40
2023-01-20T08:36:36.805Z,46.40
2023-01-20T08:39:08.687Z,43.40
2023-01-20T08:41:38.829Z,45.73
2023-01-20T08:44:07.567Z,49.70
2023-01-20T08:46:41.939Z,45.43
2023-01-20T08:49:16.212Z,39.27
2023-01-20T08:51:44.919Z,55.77
2023-01-20T08:54:12.164Z,36.43
2023-01-20T08:56:39.680Z,38.13
2023-01-20T08:59:07.122Z,37.60
2023-01-20T09:01:38.348Z,41.67
2023-01-20T09:04:06.979Z,42.43
2023-01-20T09:06:43.803Z,38.93
2023-01-20T09:09:15.479Z,38.10
2023-01-20T09:11:50.491Z,40.33
2023-01-20T09:14:22.603Z,40.87
2023-01-20T09:16:54.645Z,40.83
2023-01-20T09:19:24.191Z,33.63
2023-01-20T09:21:51.246Z,37.73
2023-01-20T09:24:18.326Z,44.03
2023-01-20T09:26:45.461Z,41.60
2023-01-20T09:29:18.771Z,43.37
2023-01-20T09:31:54.061Z,45.97
2023-01-20T09:34:24.481Z,41.37
2023-01-20T09:36:57.995Z,43.10
2023-01-20T09:39:44.213Z,36.57
2023-01-20T09:43:08.256Z,34.23
2023-01-20T09:45:48.858Z,44.23
2023-01-20T09:49:05.384Z,36.90
2023-01-20T09:52:20.241Z,32.13
2023-01-20T09:55:26.478Z,25.53
2023-01-20T09:58:25.592Z,34.13
2023-01-20T10:01:35.414Z,34.60
2023-01-20T10:04:24.400Z,38.77
2023-01-20T10:06:57.400Z,29.37
2023-01-20T10:09:47.852Z,33.90
2023-01-20T10:12:37.208Z,29.67
2023-01-20T10:15:21.497Z,29.27
2023-01-20T10:18:19.391Z,26.77
2023-01-20T10:21:06.818Z,42.73
2023-01-20T10:24:00.616Z,32.00
2023-01-20T10:26:56.087Z,38.10
2023-01-20T10:29:34.489Z,26.83
2023-01-20T10:32:06.831Z,26.73
2023-01-20T10:34:45.607Z,28.07
2023-01-20T10:37:15.245Z,33.93
2023-01-20T10:39:55.008Z,29.23
2023-01-20T10:42:22.947Z,29.83
2023-01-20T10:44:51.373Z,26.13
2023-01-20T10:47:26.621Z,23.80
2023-01-20T10:50:07.847Z,20.17
2023-01-20T10:52:51.219Z,22.43
2023-01-20T10:55:58.429Z,24.33
2023-01-20T10:58:33.870Z,23.03
2023-01-20T11:01:06.907Z,24.13
2023-01-20T11:03:44.413Z,20.67
2023-01-20T11:06:23.442Z,23.07
2023-01-20T11:08:50.907Z,28.90
2023-01-20T11:11:25.641Z,24.00
2023-01-20T11:13:57.417Z,21.10
2023-01-20T11:16:31.719Z,23.97
2023-01-20T11:18:58.726Z,20.23
2023-01-20T11:21:29.331Z,18.17
2023-01-20T11:24:00.968Z,16.37
2023-01-20T11:26:33.590Z,25.00
2023-01-20T11:29:29.440Z,20.37
2023-01-20T11:31:59.856Z,21.90
2023-01-20T11:34:35.662Z,21.23
2023-01-20T11:37:05.777Z,20.30
2023-01-20T11:39:37.108Z,23.17
2023-01-20T11:42:26.074Z,17.70
2023-01-20T11:45:20.218Z,25.97
2023-01-20T11:48:16.072Z,21.03
2023-01-20T11:50:58.565Z,19.10
2023-01-20T11:53:33.102Z,21.17
2023-01-20T11:56:02.328Z,23.07
2023-01-20T11:58:50.864Z,22.30
2023-01-20T12:01:30.797Z,21.70
2023-01-20T12:04:20.205Z,21.67
2023-01-20T12:06:56.875Z,23.77
2023-01-20T12:09:35.438Z,30.70
2023-01-20T12:12:25.699Z,16.77
2023-01-20T12:15:02.918Z,22.23
2023-01-20T12:17:41.479Z,18.63
2023-01-20T12:20:35.423Z,24.93
2023-01-20T12:23:27.978Z,15.80
2023-01-20T12:26:06.291Z,17.10
2023-01-20T12:28:56.289Z,18.10
2023-01-20T12:31:24.974Z,16.57
2023-01-20T12:34:05.006Z,15.90
2023-01-20T12:37:11.659Z,20.63
2023-01-20T12:39:59.662Z,16.10
2023-01-20T12:42:54.335Z,17.47
2023-01-20T12:46:02.377Z,17.03
2023-01-20T12:49:02.740Z,16.27
2023-01-20T12:51:59.135Z,18.17
2023-01-20T12:54:55.030Z,14.47
2023-01-20T12:57:33.295Z,18.53
2023-01-20T13:00:45.536Z,21.00
2023-01-20T13:04:02.473Z,16.87
2023-01-20T13:06:36.539Z,16.37
2023-01-20T13:09:37.115Z,16.20
2023-01-20T13:12:31.363Z,17.70
2023-01-20T13:15:19.780Z,19.90
2023-01-20T13:18:21.898Z,19.13
2023-01-20T13:20:49.819Z,16.13
2023-01-20T13:23:24.462Z,12.30
2023-01-20T13:25:52.648Z,21.00
2023-01-20T13:28:30.607Z,16.00
2023-01-20T13:31:00.404Z,18.63
2023-01-20T13:33:38.693Z,17.77
2023-01-20T13:36:26.228Z,14.97
2023-01-20T13:39:40.411Z,13.70
2023-01-20T13:42:29.280Z,13.87
2023-01-20T13:45:11.618Z,14.80
2023-01-20T13:48:10.967Z,13.53
2023-01-20T13:50:47.640Z,13.17
2023-01-20T13:53:28.326Z,12.23
2023-01-20T13:55:58.819Z,16.67
2023-01-20T13:58:33.593Z,16.87
2023-01-20T14:01:14.904Z,15.97
2023-01-20T14:03:44.533Z,16.60
2023-01-20T14:06:14.414Z,21.27
2023-01-20T14:08:51.245Z,17.27
2023-01-20T14:11:21.791Z,15.17
2023-01-20T14:13:58.475Z,17.27
2023-01-20T14:16:34.643Z,17.73
2023-01-20T14:19:34.250Z,17.90
2023-01-20T14:22:37.085Z,17.93
2023-01-20T14:25:04.516Z,15.87
2023-01-20T14:27:41.787Z,18.20
2023-01-20T14:30:27.422Z,15.87
2023-01-20T14:32:54.802Z,18.77
2023-01-20T14:35:31.274Z,17.07
2023-01-20T14:38:03.995Z,17.10
2023-01-20T14:40:35.375Z,15.10
2023-01-20T14:43:22.476Z,13.73
2023-01-20T14:45:54.675Z,19.30
2023-01-20T14:48:33.963Z,14.37
2023-01-20T14:51:06.291Z,21.60
2023-01-20T14:53:35.459Z,15.30
2023-01-20T14:56:09.983Z,17.53
2023-01-20T14:58:46.626Z,13.33
2023-01-20T15:01:25.719Z,18.43
2023-01-20T15:04:01.892Z,15.40
2023-01-20T15:06:28.926Z,20.20
2023-01-20T15:09:06.492Z,27.00
2023-01-20T15:11:35.573Z,17.17
2023-01-20T15:14:02.560Z,16.80
2023-01-20T15:16:47.578Z,22.77
2023-01-20T15:19:18.385Z,17.27
2023-01-20T15:21:56.578Z,16.60
2023-01-20T15:24:32.792Z,15.20
2023-01-20T15:27:04.243Z,15.33
2023-01-20T15:29:36.741Z,22.50
2023-01-20T15:32:12.720Z,17.53
2023-01-20T15:34:39.652Z,17.90
2023-01-20T15:37:18.717Z,19.93
2023-01-20T15:39:48.187Z,17.20
2023-01-20T15:42:18.935Z,19.37
2023-01-20T15:44:46.388Z,34.57
2023-01-20T15:47:31.110Z,19.33
2023-01-20T15:49:58.779Z,19.57
2023-01-20T15:52:28.169Z,25.67
2023-01-20T15:54:55.331Z,17.07
2023-01-20T15:57:22.246Z,27.80
2023-01-20T15:59:50.225Z,25.33
2023-01-20T16:02:23.173Z,25.27
2023-01-20T16:04:50.483Z,26.97
2023-01-20T16:07:21.670Z,25.83
2023-01-20T16:09:49.191Z,26.87
2023-01-20T16:12:18.341Z,25.00
2023-01-20T16:14:47.866Z,25.63
2023-01-20T16:17:24.824Z,32.70
2023-01-20T16:19:51.756Z,30.40
2023-01-20T16:22:18.885Z,27.13
2023-01-20T16:24:51.388Z,24.10
2023-01-20T16:27:22.443Z,23.50
2023-01-20T16:29:49.919Z,36.60
2023-01-20T16:32:22.232Z,28.20
2023-01-20T16:34:52.157Z,26.77
2023-01-20T16:37:21.572Z,34.57
2023-01-20T16:39:52.983Z,36.47
2023-01-20T16:42:29.770Z,26.90
2023-01-20T16:44:58.848Z,34.77
2023-01-20T16:47:25.764Z,32.83
2023-01-20T16:49:55.804Z,25.90
2023-01-20T16:52:22.802Z,39.40
2023-01-20T16:54:49.676Z,30.63
2023-01-20T16:57:16.569Z,35.53
2023-01-20T16:59:43.564Z,24.40
2023-01-20T17:02:12.116Z,30.40
2023-01-20T17:04:41.961Z,26.90
2023-01-20T17:07:08.999Z,31.00
2023-01-20T17:09:38.549Z,27.60
2023-01-20T17:12:05.691Z,29.17
2023-01-20T17:14:34.888Z,32.90
2023-01-20T17:17:03.967Z,31.47
2023-01-20T17:19:33.394Z,35.13
2023-01-20T17:22:00.519Z,30.17
2023-01-20T17:24:27.609Z,34.87
2023-01-20T17:26:54.720Z,28.80
2023-01-20T17:29:21.955Z,36.60
2023-01-20T17:31:49.133Z,38.27
2023-01-20T17:34:18.593Z,39.73
2023-01-20T17:36:48.225Z,42.27
2023-01-20T17:39:17.682Z,42.93
2023-01-20T17:41:44.588Z,40.13
2023-01-20T17:44:13.308Z,40.80
2023-01-20T17:46:40.318Z,42.90
2023-01-20T17:49:09.955Z,43.47
2023-01-20T17:51:37.103Z,51.73
2023-01-20T17:54:06.689Z,46.20
2023-01-20T17:56:35.114Z,41.33
2023-01-20T17:59:05.793Z,53.50
2023-01-20T18:01:35.950Z,57.50
2023-01-20T18:04:06.424Z,42.57
2023-01-20T18:06:35.343Z,36.83
2023-01-20T18:09:07.839Z,42.77
2023-01-20T18:11:37.657Z,45.43
2023-01-20T18:14:06.807Z,48.80
2023-01-20T18:16:38.934Z,47.83
2023-01-20T18:19:09.237Z,40.47
2023-01-20T18:21:38.396Z,37.40
2023-01-20T18:24:07.673Z,39.57
2023-01-20T18:26:37.753Z,44.67
2023-01-20T18:29:14.889Z,61.13
2023-01-20T18:31:46.769Z,42.37
2023-01-20T18:34:20.732Z,32.67
2023-01-20T18:36:50.514Z,34.60
2023-01-20T18:39:24.147Z,37.13
2023-01-20T18:41:52.183Z,33.43
2023-01-20T18:44:20.175Z,33.50
2023-01-20T18:46:47.236Z,31.03
2023-01-20T18:49:17.884Z,32.00
2023-01-20T18:51:49.776Z,43.53
2023-01-20T18:54:20.951Z,31.47
2023-01-20T18:56:48.182Z,35.53
2023-01-20T18:59:15.367Z,28.33
2023-01-20T19:01:44.829Z,35.10
2023-01-20T19:04:13.632Z,27.47
2023-01-20T19:06:45.508Z,31.77
2023-01-20T19:09:35.080Z,24.73
2023-01-20T19:12:04.781Z,33.63
2023-01-20T19:14:31.790Z,27.60
2023-01-20T19:16:58.808Z,30.33
2023-01-20T19:19:28.418Z,41.37
2023-01-20T19:21:55.251Z,32.47
2023-01-20T19:24:22.450Z,31.70
2023-01-20T19:26:49.832Z,36.40
2023-01-20T19:29:18.021Z,44.87
2023-01-20T19:31:45.228Z,38.10
2023-01-20T19:34:12.877Z,37.83
2023-01-20T19:36:39.996Z,36.57
2023-01-20T19:39:09.640Z,44.93
2023-01-20T19:41:38.798Z,54.03
2023-01-20T19:44:10.916Z,47.37
2023-01-20T19:46:39.340Z,47.10
2023-01-20T19:49:11.467Z,46.97
2023-01-20T19:51:41.869Z,49.57
2023-01-20T19:54:17.343Z,49.57
2023-01-20T19:56:44.665Z,47.33
2023-01-20T19:59:17.029Z,42.30
2023-01-20T20:01:47.236Z,51.17
2023-01-20T20:04:14.563Z,45.43
2023-01-20T20:06:48.508Z,47.00
2023-01-20T20:09:23.334Z,45.47
2023-01-20T20:11:50.679Z,40.20
2023-01-20T20:14:20.647Z,52.23
2023-01-20T20:16:48.854Z,48.10
2023-01-20T20:19:19.985Z,43.57
2023-01-20T20:21:46.956Z,47.20
2023-01-20T20:24:18.279Z,42.07
2023-01-20T20:26:49.508Z,49.87
2023-01-20T20:29:19.027Z,56.90
2023-01-20T20:31:46.891Z,50.73
2023-01-20T20:34:17.497Z,47.07
2023-01-20T20:36:45.061Z,43.27
2023-01-20T20:39:19.711Z,50.97
2023-01-20T20:41:47.056Z,41.17
2023-01-20T20:44:14.921Z,38.77
2023-01-20T20:46:41.793Z,44.53
2023-01-20T20:49:15.473Z,49.07
2023-01-20T20:51:45.111Z,54.33
2023-01-20T20:54:20.234Z,51.33
2023-01-20T20:56:47.147Z,53.93
2023-01-20T20:59:14.345Z,62.97
2023-01-20T21:01:41.357Z,55.57
2023-01-20T21:04:08.745Z,70.20
2023-01-20T21:06:35.697Z,61.90
2023-01-20T21:09:03.138Z,71.17
2023-01-20T21:11:30.290Z,63.50
2023-01-20T21:13:57.554Z,65.33
2023-01-20T21:16:26.132Z,65.57
2023-01-20T21:18:56.398Z,54.70
2023-01-20T21:21:24.034Z,55.77
2023-01-20T21:23:54.634Z,53.93
2023-01-20T21:26:22.972Z,52.73
2023-01-20T21:28:52.135Z,53.67
2023-01-20T21:31:26.809Z,54.47
2023-01-20T21:33:58.291Z,58.33
2023-01-20T21:36:27.187Z,42.30
2023-01-20T21:38:54.559Z,60.70
2023-01-20T21:41:21.647Z,58.03
2023-01-20T21:44:07.750Z,54.87
2023-01-20T21:46:40.277Z,58.47
2023-01-20T21:49:27.765Z,53.30
2023-01-20T21:52:14.372Z,54.20
2023-01-20T21:54:41.780Z,48.70
2023-01-20T21:57:11.109Z,54.40
2023-01-20T21:59:38.198Z,51.20
2023-01-20T22:02:08.407Z,47.67
2023-01-20T22:04:35.368Z,53.27
2023-01-20T22:07:04.788Z,51.70
2023-01-20T22:09:34.048Z,63.03
2023-01-20T22:12:00.899Z,51.47
2023-01-20T22:14:32.338Z,52.40
2023-01-20T22:17:05.467Z,55.20
2023-01-20T22:19:35.315Z,51.23
2023-01-20T22:22:06.964Z,58.73
2023-01-20T22:24:36.117Z,50.07
2023-01-20T22:27:03.147Z,54.67
2023-01-20T22:29:30.445Z,45.93
2023-01-20T22:31:59.438Z,52.53
2023-01-20T22:34:29.313Z,45.83
2023-01-20T22:36:57.666Z,51.77
2023-01-20T22:39:24.550Z,50.67
2023-01-20T22:41:51.407Z,46.57
2023-01-20T22:44:18.491Z,43.67
2023-01-20T22:46:47.677Z,44.73
2023-01-20T22:49:17.225Z,48.97
2023-01-20T22:51:46.880Z,50.87
2023-01-20T22:54:13.900Z,45.17
2023-01-20T22:56:40.814Z,51.83
2023-01-20T22:59:13.598Z,48.00
2023-01-20T23:01:40.681Z,44.70
2023-01-20T23:04:10.076Z,50.90
2023-01-20T23:06:42.007Z,51.63
2023-01-20T23:09:14.437Z,47.57
2023-01-20T23:11:41.742Z,43.20
2023-01-20T23:14:12.670Z,44.03
2023-01-20T23:16:43.341Z,49.33
2023-01-20T23:19:10.725Z,43.53
2023-01-20T23:21:37.660Z,41.73
2023-01-20T23:24:09.033Z,52.83
2023-01-20T23:26:38.544Z,52.73
2023-01-20T23:29:08.049Z,46.33
2023-01-20T23:31:38.159Z,45.40
2023-01-20T23:34:05.188Z,51.00
2023-01-20T23:36:34.954Z,47.40
2023-01-20T23:39:04.464Z,49.53
2023-01-20T23:41:31.543Z,48.37
2023-01-20T23:44:05.467Z,46.57
2023-01-20T23:46:32.390Z,50.53
2023-01-20T23:48:59.226Z,53.00
2023-01-20T23:51:26.282Z,44.73
2023-01-20T23:53:58.828Z,46.50
2023-01-20T23:56:26.066Z,46.00
2023-01-20T23:58:55.427Z,51.57
